sensor_id;sensor_type;location;lat;lon;timestamp;temperature;humidity
53978;DHT22;39886;47.984;-1.586;2022-07-24T00:00:56;26.70;52.40
53978;DHT22;39886;47.984;-1.586;2022-07-24T00:03:22;26.70;52.50
53978;DHT22;39886;47.984;-1.586;2022-07-24T00:05:48;26.70;52.50
53978;DHT22;39886;47.984;-1.586;2022-07-24T00:08:13;26.70;52.50
53978;DHT22;39886;47.984;-1.586;2022-07-24T00:10:39;26.70;52.60
53978;DHT22;39886;47.984;-1.586;2022-07-24T00:13:05;26.70;52.60
53978;DHT22;39886;47.984;-1.586;2022-07-24T00:15:31;26.70;52.60
53978;DHT22;39886;47.984;-1.586;2022-07-24T00:17:57;26.70;52.60
53978;DHT22;39886;47.984;-1.586;2022-07-24T00:20:22;26.70;52.60
53978;DHT22;39886;47.984;-1.586;2022-07-24T00:22:48;26.60;52.50
53978;DHT22;39886;47.984;-1.586;2022-07-24T00:25:14;26.60;52.60
53978;DHT22;39886;47.984;-1.586;2022-07-24T00:27:40;26.60;52.60
53978;DHT22;39886;47.984;-1.586;2022-07-24T00:30:06;26.60;52.60
53978;DHT22;39886;47.984;-1.586;2022-07-24T00:32:32;26.60;52.70
53978;DHT22;39886;47.984;-1.586;2022-07-24T00:34:58;26.60;52.70
53978;DHT22;39886;47.984;-1.586;2022-07-24T00:37:24;26.60;52.70
53978;DHT22;39886;47.984;-1.586;2022-07-24T00:39:49;26.60;52.80
53978;DHT22;39886;47.984;-1.586;2022-07-24T00:42:15;26.50;53.40
53978;DHT22;39886;47.984;-1.586;2022-07-24T00:44:41;26.50;52.70
53978;DHT22;39886;47.984;-1.586;2022-07-24T00:47:07;26.50;52.80
53978;DHT22;39886;47.984;-1.586;2022-07-24T00:49:32;26.50;52.80
53978;DHT22;39886;47.984;-1.586;2022-07-24T00:51:58;26.50;52.80
53978;DHT22;39886;47.984;-1.586;2022-07-24T00:54:24;26.50;52.90
53978;DHT22;39886;47.984;-1.586;2022-07-24T00:56:52;26.50;52.90
53978;DHT22;39886;47.984;-1.586;2022-07-24T00:59:18;26.50;52.90
53978;DHT22;39886;47.984;-1.586;2022-07-24T01:01:45;26.40;52.80
53978;DHT22;39886;47.984;-1.586;2022-07-24T01:04:11;26.40;52.90
53978;DHT22;39886;47.984;-1.586;2022-07-24T01:06:40;26.40;52.90
53978;DHT22;39886;47.984;-1.586;2022-07-24T01:09:07;26.40;52.90
53978;DHT22;39886;47.984;-1.586;2022-07-24T01:11:33;26.40;52.90
53978;DHT22;39886;47.984;-1.586;2022-07-24T01:13:59;26.40;52.90
53978;DHT22;39886;47.984;-1.586;2022-07-24T01:16:25;26.40;53.00
53978;DHT22;39886;47.984;-1.586;2022-07-24T01:18:51;26.40;53.00
53978;DHT22;39886;47.984;-1.586;2022-07-24T01:21:17;26.30;53.00
53978;DHT22;39886;47.984;-1.586;2022-07-24T01:23:43;26.30;53.00
53978;DHT22;39886;47.984;-1.586;2022-07-24T01:26:09;26.30;53.00
53978;DHT22;39886;47.984;-1.586;2022-07-24T01:28:35;26.30;53.00
53978;DHT22;39886;47.984;-1.586;2022-07-24T01:31:01;26.30;53.00
53978;DHT22;39886;47.984;-1.586;2022-07-24T01:33:27;26.30;53.00
53978;DHT22;39886;47.984;-1.586;2022-07-24T01:35:52;26.30;53.10
53978;DHT22;39886;47.984;-1.586;2022-07-24T01:38:18;26.30;53.10
53978;DHT22;39886;47.984;-1.586;2022-07-24T01:40:44;26.30;53.10
53978;DHT22;39886;47.984;-1.586;2022-07-24T01:43:10;26.30;53.10
53978;DHT22;39886;47.984;-1.586;2022-07-24T01:45:36;26.30;53.20
53978;DHT22;39886;47.984;-1.586;2022-07-24T01:48:03;26.30;53.20
53978;DHT22;39886;47.984;-1.586;2022-07-24T01:50:29;26.30;53.20
53978;DHT22;39886;47.984;-1.586;2022-07-24T01:52:55;26.30;53.20
53978;DHT22;39886;47.984;-1.586;2022-07-24T01:55:21;26.20;53.20
53978;DHT22;39886;47.984;-1.586;2022-07-24T01:57:48;26.20;53.20
53978;DHT22;39886;47.984;-1.586;2022-07-24T02:00:15;26.20;53.20
53978;DHT22;39886;47.984;-1.586;2022-07-24T02:02:42;26.20;53.20
53978;DHT22;39886;47.984;-1.586;2022-07-24T02:05:09;26.20;53.30
53978;DHT22;39886;47.984;-1.586;2022-07-24T02:07:35;26.20;53.30
53978;DHT22;39886;47.984;-1.586;2022-07-24T02:10:01;26.20;53.30
53978;DHT22;39886;47.984;-1.586;2022-07-24T02:12:27;26.20;53.40
53978;DHT22;39886;47.984;-1.586;2022-07-24T02:14:53;26.20;53.40
53978;DHT22;39886;47.984;-1.586;2022-07-24T02:17:18;26.20;53.40
53978;DHT22;39886;47.984;-1.586;2022-07-24T02:19:44;26.10;53.40
53978;DHT22;39886;47.984;-1.586;2022-07-24T02:22:10;26.10;53.30
53978;DHT22;39886;47.984;-1.586;2022-07-24T02:24:36;26.10;53.30
53978;DHT22;39886;47.984;-1.586;2022-07-24T02:27:02;26.10;53.30
53978;DHT22;39886;47.984;-1.586;2022-07-24T02:29:27;26.10;53.30
53978;DHT22;39886;47.984;-1.586;2022-07-24T02:31:53;26.10;53.30
53978;DHT22;39886;47.984;-1.586;2022-07-24T02:34:19;26.10;53.40
53978;DHT22;39886;47.984;-1.586;2022-07-24T02:36:45;26.10;53.40
53978;DHT22;39886;47.984;-1.586;2022-07-24T02:39:10;26.10;53.40
53978;DHT22;39886;47.984;-1.586;2022-07-24T02:41:36;26.10;53.40
53978;DHT22;39886;47.984;-1.586;2022-07-24T02:44:02;26.00;53.40
53978;DHT22;39886;47.984;-1.586;2022-07-24T02:46:28;26.00;53.40
53978;DHT22;39886;47.984;-1.586;2022-07-24T02:48:53;26.00;53.40
53978;DHT22;39886;47.984;-1.586;2022-07-24T02:51:19;26.00;53.50
53978;DHT22;39886;47.984;-1.586;2022-07-24T02:53:45;26.00;53.50
53978;DHT22;39886;47.984;-1.586;2022-07-24T02:56:10;26.00;53.50
53978;DHT22;39886;47.984;-1.586;2022-07-24T02:58:36;26.00;53.50
53978;DHT22;39886;47.984;-1.586;2022-07-24T03:01:02;26.00;53.50
53978;DHT22;39886;47.984;-1.586;2022-07-24T03:03:28;25.90;53.50
53978;DHT22;39886;47.984;-1.586;2022-07-24T03:05:54;26.00;53.60
53978;DHT22;39886;47.984;-1.586;2022-07-24T03:08:19;25.90;53.50
53978;DHT22;39886;47.984;-1.586;2022-07-24T03:10:45;25.90;53.50
53978;DHT22;39886;47.984;-1.586;2022-07-24T03:13:11;25.90;53.50
53978;DHT22;39886;47.984;-1.586;2022-07-24T03:15:37;25.90;53.50
53978;DHT22;39886;47.984;-1.586;2022-07-24T03:18:03;25.90;53.60
53978;DHT22;39886;47.984;-1.586;2022-07-24T03:20:30;25.90;53.60
53978;DHT22;39886;47.984;-1.586;2022-07-24T03:22:56;25.90;53.60
53978;DHT22;39886;47.984;-1.586;2022-07-24T03:25:23;25.90;53.60
53978;DHT22;39886;47.984;-1.586;2022-07-24T03:27:49;25.90;53.60
53978;DHT22;39886;47.984;-1.586;2022-07-24T03:30:16;25.90;53.60
53978;DHT22;39886;47.984;-1.586;2022-07-24T03:32:42;25.90;53.60
53978;DHT22;39886;47.984;-1.586;2022-07-24T03:35:08;25.80;54.30
53978;DHT22;39886;47.984;-1.586;2022-07-24T03:37:35;25.80;53.70
53978;DHT22;39886;47.984;-1.586;2022-07-24T03:40:01;25.80;53.70
53978;DHT22;39886;47.984;-1.586;2022-07-24T03:42:27;25.80;53.60
53978;DHT22;39886;47.984;-1.586;2022-07-24T03:44:53;25.80;53.70
53978;DHT22;39886;47.984;-1.586;2022-07-24T03:47:19;25.80;53.70
53978;DHT22;39886;47.984;-1.586;2022-07-24T03:49:45;25.80;53.70
53978;DHT22;39886;47.984;-1.586;2022-07-24T03:52:10;25.80;53.70
53978;DHT22;39886;47.984;-1.586;2022-07-24T03:54:36;25.80;53.70
53978;DHT22;39886;47.984;-1.586;2022-07-24T03:57:02;25.80;53.80
53978;DHT22;39886;47.984;-1.586;2022-07-24T03:59:28;25.80;53.80
53978;DHT22;39886;47.984;-1.586;2022-07-24T04:01:53;25.80;53.80
53978;DHT22;39886;47.984;-1.586;2022-07-24T04:04:19;25.80;53.80
53978;DHT22;39886;47.984;-1.586;2022-07-24T04:06:45;25.80;53.90
53978;DHT22;39886;47.984;-1.586;2022-07-24T04:09:11;25.80;54.50
53978;DHT22;39886;47.984;-1.586;2022-07-24T04:11:37;25.70;53.80
53978;DHT22;39886;47.984;-1.586;2022-07-24T04:14:03;25.70;53.80
53978;DHT22;39886;47.984;-1.586;2022-07-24T04:16:28;25.70;53.80
53978;DHT22;39886;47.984;-1.586;2022-07-24T04:18:54;25.70;53.80
53978;DHT22;39886;47.984;-1.586;2022-07-24T04:21:20;25.70;53.80
53978;DHT22;39886;47.984;-1.586;2022-07-24T04:23:46;25.70;53.80
53978;DHT22;39886;47.984;-1.586;2022-07-24T04:26:11;25.70;53.90
53978;DHT22;39886;47.984;-1.586;2022-07-24T04:28:38;25.70;53.90
53978;DHT22;39886;47.984;-1.586;2022-07-24T04:31:04;25.70;53.90
53978;DHT22;39886;47.984;-1.586;2022-07-24T04:33:30;25.70;53.90
53978;DHT22;39886;47.984;-1.586;2022-07-24T04:35:56;25.70;53.90
53978;DHT22;39886;47.984;-1.586;2022-07-24T04:38:22;25.70;53.90
53978;DHT22;39886;47.984;-1.586;2022-07-24T04:40:47;25.60;53.80
53978;DHT22;39886;47.984;-1.586;2022-07-24T04:43:13;25.60;53.80
53978;DHT22;39886;47.984;-1.586;2022-07-24T04:45:39;25.60;53.90
53978;DHT22;39886;47.984;-1.586;2022-07-24T04:48:05;25.60;53.90
53978;DHT22;39886;47.984;-1.586;2022-07-24T04:50:31;25.60;53.90
53978;DHT22;39886;47.984;-1.586;2022-07-24T04:52:57;25.60;53.90
53978;DHT22;39886;47.984;-1.586;2022-07-24T04:55:22;25.60;53.90
53978;DHT22;39886;47.984;-1.586;2022-07-24T04:57:48;25.60;53.90
53978;DHT22;39886;47.984;-1.586;2022-07-24T05:00:15;25.60;53.90
53978;DHT22;39886;47.984;-1.586;2022-07-24T05:02:41;25.60;53.90
53978;DHT22;39886;47.984;-1.586;2022-07-24T05:05:07;25.60;53.90
53978;DHT22;39886;47.984;-1.586;2022-07-24T05:07:33;25.60;53.90
53978;DHT22;39886;47.984;-1.586;2022-07-24T05:09:58;25.60;53.90
53978;DHT22;39886;47.984;-1.586;2022-07-24T05:12:25;25.60;53.90
53978;DHT22;39886;47.984;-1.586;2022-07-24T05:14:51;25.60;53.90
53978;DHT22;39886;47.984;-1.586;2022-07-24T05:17:17;25.60;53.90
53978;DHT22;39886;47.984;-1.586;2022-07-24T05:19:42;25.60;53.90
53978;DHT22;39886;47.984;-1.586;2022-07-24T05:22:08;25.60;53.90
53978;DHT22;39886;47.984;-1.586;2022-07-24T05:24:34;25.60;53.90
53978;DHT22;39886;47.984;-1.586;2022-07-24T05:27:00;25.60;53.90
53978;DHT22;39886;47.984;-1.586;2022-07-24T05:29:26;25.60;53.90
53978;DHT22;39886;47.984;-1.586;2022-07-24T05:31:51;25.60;53.90
53978;DHT22;39886;47.984;-1.586;2022-07-24T05:34:22;25.60;53.80
53978;DHT22;39886;47.984;-1.586;2022-07-24T05:36:48;25.70;53.90
53978;DHT22;39886;47.984;-1.586;2022-07-24T05:39:14;25.70;53.80
53978;DHT22;39886;47.984;-1.586;2022-07-24T05:41:40;25.70;53.80
53978;DHT22;39886;47.984;-1.586;2022-07-24T05:44:06;25.70;53.80
53978;DHT22;39886;47.984;-1.586;2022-07-24T05:46:32;25.70;53.70
53978;DHT22;39886;47.984;-1.586;2022-07-24T05:48:57;25.70;53.70
53978;DHT22;39886;47.984;-1.586;2022-07-24T05:51:23;25.80;53.70
53978;DHT22;39886;47.984;-1.586;2022-07-24T05:53:49;25.80;53.70
53978;DHT22;39886;47.984;-1.586;2022-07-24T05:56:15;25.80;53.70
53978;DHT22;39886;47.984;-1.586;2022-07-24T05:58:40;25.80;53.60
53978;DHT22;39886;47.984;-1.586;2022-07-24T06:01:06;25.80;53.60
53978;DHT22;39886;47.984;-1.586;2022-07-24T06:03:32;25.80;53.60
53978;DHT22;39886;47.984;-1.586;2022-07-24T06:05:57;25.90;53.70
53978;DHT22;39886;47.984;-1.586;2022-07-24T06:08:23;25.90;53.70
53978;DHT22;39886;47.984;-1.586;2022-07-24T06:10:49;25.90;53.60
53978;DHT22;39886;47.984;-1.586;2022-07-24T06:13:15;25.90;53.60
53978;DHT22;39886;47.984;-1.586;2022-07-24T06:15:41;26.00;53.70
53978;DHT22;39886;47.984;-1.586;2022-07-24T06:18:06;26.00;53.70
53978;DHT22;39886;47.984;-1.586;2022-07-24T06:20:32;26.00;53.60
53978;DHT22;39886;47.984;-1.586;2022-07-24T06:22:58;26.00;54.20
53978;DHT22;39886;47.984;-1.586;2022-07-24T06:25:24;26.10;53.60
53978;DHT22;39886;47.984;-1.586;2022-07-24T06:27:50;26.10;53.60
53978;DHT22;39886;47.984;-1.586;2022-07-24T06:30:19;26.10;53.50
53978;DHT22;39886;47.984;-1.586;2022-07-24T06:32:45;26.20;53.60
53978;DHT22;39886;47.984;-1.586;2022-07-24T06:35:11;26.20;53.60
53978;DHT22;39886;47.984;-1.586;2022-07-24T06:37:37;26.20;53.50
53978;DHT22;39886;47.984;-1.586;2022-07-24T06:40:04;26.20;53.50
53978;DHT22;39886;47.984;-1.586;2022-07-24T06:42:30;26.30;53.50
53978;DHT22;39886;47.984;-1.586;2022-07-24T06:44:56;26.30;53.50
53978;DHT22;39886;47.984;-1.586;2022-07-24T06:47:22;26.30;53.50
53978;DHT22;39886;47.984;-1.586;2022-07-24T06:49:47;26.40;53.50
53978;DHT22;39886;47.984;-1.586;2022-07-24T06:52:13;26.30;53.30
53978;DHT22;39886;47.984;-1.586;2022-07-24T06:54:39;26.40;53.30
53978;DHT22;39886;47.984;-1.586;2022-07-24T06:57:05;26.50;53.30
53978;DHT22;39886;47.984;-1.586;2022-07-24T06:59:30;26.50;53.20
53978;DHT22;39886;47.984;-1.586;2022-07-24T07:01:56;26.50;53.10
53978;DHT22;39886;47.984;-1.586;2022-07-24T07:04:22;26.60;53.10
53978;DHT22;39886;47.984;-1.586;2022-07-24T07:06:48;26.60;53.10
53978;DHT22;39886;47.984;-1.586;2022-07-24T07:09:14;26.60;53.00
53978;DHT22;39886;47.984;-1.586;2022-07-24T07:11:39;26.60;53.00
53978;DHT22;39886;47.984;-1.586;2022-07-24T07:14:05;26.70;53.00
53978;DHT22;39886;47.984;-1.586;2022-07-24T07:16:31;26.70;52.90
53978;DHT22;39886;47.984;-1.586;2022-07-24T07:18:57;26.70;52.90
53978;DHT22;39886;47.984;-1.586;2022-07-24T07:21:23;26.80;52.80
53978;DHT22;39886;47.984;-1.586;2022-07-24T07:23:48;26.80;52.80
53978;DHT22;39886;47.984;-1.586;2022-07-24T07:26:14;26.80;52.80
53978;DHT22;39886;47.984;-1.586;2022-07-24T07:28:40;26.90;52.70
53978;DHT22;39886;47.984;-1.586;2022-07-24T07:31:05;26.90;52.70
53978;DHT22;39886;47.984;-1.586;2022-07-24T07:33:31;26.90;52.70
53978;DHT22;39886;47.984;-1.586;2022-07-24T07:35:57;26.90;52.60
53978;DHT22;39886;47.984;-1.586;2022-07-24T07:38:23;27.00;52.60
53978;DHT22;39886;47.984;-1.586;2022-07-24T07:40:48;27.00;52.50
53978;DHT22;39886;47.984;-1.586;2022-07-24T07:43:14;27.00;52.50
53978;DHT22;39886;47.984;-1.586;2022-07-24T07:45:40;27.10;52.50
53978;DHT22;39886;47.984;-1.586;2022-07-24T07:48:05;27.10;52.40
53978;DHT22;39886;47.984;-1.586;2022-07-24T07:50:31;27.10;52.40
53978;DHT22;39886;47.984;-1.586;2022-07-24T07:52:57;27.20;52.40
53978;DHT22;39886;47.984;-1.586;2022-07-24T07:55:23;27.20;52.40
53978;DHT22;39886;47.984;-1.586;2022-07-24T07:57:49;27.20;52.30
53978;DHT22;39886;47.984;-1.586;2022-07-24T08:00:15;27.20;52.30
53978;DHT22;39886;47.984;-1.586;2022-07-24T08:02:41;27.30;52.20
53978;DHT22;39886;47.984;-1.586;2022-07-24T08:05:07;27.30;52.20
53978;DHT22;39886;47.984;-1.586;2022-07-24T08:07:33;27.30;52.20
53978;DHT22;39886;47.984;-1.586;2022-07-24T08:09:59;27.40;52.10
53978;DHT22;39886;47.984;-1.586;2022-07-24T08:12:25;27.40;52.10
53978;DHT22;39886;47.984;-1.586;2022-07-24T08:14:50;27.40;52.10
53978;DHT22;39886;47.984;-1.586;2022-07-24T08:17:16;27.40;52.00
53978;DHT22;39886;47.984;-1.586;2022-07-24T08:19:42;27.50;52.00
53978;DHT22;39886;47.984;-1.586;2022-07-24T08:22:07;27.50;51.90
53978;DHT22;39886;47.984;-1.586;2022-07-24T08:24:33;27.50;51.90
53978;DHT22;39886;47.984;-1.586;2022-07-24T08:26:59;27.60;52.00
53978;DHT22;39886;47.984;-1.586;2022-07-24T08:29:26;27.60;51.90
53978;DHT22;39886;47.984;-1.586;2022-07-24T08:31:52;27.60;51.80
53978;DHT22;39886;47.984;-1.586;2022-07-24T08:34:17;27.70;51.80
53978;DHT22;39886;47.984;-1.586;2022-07-24T08:36:44;27.70;51.80
53978;DHT22;39886;47.984;-1.586;2022-07-24T08:39:14;27.70;51.70
53978;DHT22;39886;47.984;-1.586;2022-07-24T08:41:41;27.80;51.70
53978;DHT22;39886;47.984;-1.586;2022-07-24T08:44:07;27.80;51.70
53978;DHT22;39886;47.984;-1.586;2022-07-24T08:46:37;27.80;51.60
53978;DHT22;39886;47.984;-1.586;2022-07-24T08:49:12;27.80;51.50
53978;DHT22;39886;47.984;-1.586;2022-07-24T08:51:40;27.90;51.50
53978;DHT22;39886;47.984;-1.586;2022-07-24T08:54:07;27.90;51.50
53978;DHT22;39886;47.984;-1.586;2022-07-24T08:56:33;27.90;51.50
53978;DHT22;39886;47.984;-1.586;2022-07-24T08:59:00;27.90;51.40
53978;DHT22;39886;47.984;-1.586;2022-07-24T09:01:26;28.00;51.40
53978;DHT22;39886;47.984;-1.586;2022-07-24T09:03:52;28.00;51.30
53978;DHT22;39886;47.984;-1.586;2022-07-24T09:06:18;28.00;51.20
53978;DHT22;39886;47.984;-1.586;2022-07-24T09:08:58;28.10;51.30
53978;DHT22;39886;47.984;-1.586;2022-07-24T09:11:24;28.10;51.20
53978;DHT22;39886;47.984;-1.586;2022-07-24T09:13:53;28.10;51.20
53978;DHT22;39886;47.984;-1.586;2022-07-24T09:16:37;28.10;51.00
53978;DHT22;39886;47.984;-1.586;2022-07-24T09:19:05;28.20;51.10
53978;DHT22;39886;47.984;-1.586;2022-07-24T09:21:35;28.20;51.00
53978;DHT22;39886;47.984;-1.586;2022-07-24T09:24:14;28.20;51.00
53978;DHT22;39886;47.984;-1.586;2022-07-24T09:26:55;28.30;51.00
53978;DHT22;39886;47.984;-1.586;2022-07-24T09:29:24;28.30;50.90
53978;DHT22;39886;47.984;-1.586;2022-07-24T09:34:16;28.30;50.80
53978;DHT22;39886;47.984;-1.586;2022-07-24T09:36:58;28.40;50.80
53978;DHT22;39886;47.984;-1.586;2022-07-24T09:39:25;28.40;50.70
53978;DHT22;39886;47.984;-1.586;2022-07-24T09:41:52;28.40;50.60
53978;DHT22;39886;47.984;-1.586;2022-07-24T09:44:19;28.40;50.60
53978;DHT22;39886;47.984;-1.586;2022-07-24T09:46:56;28.40;50.50
53978;DHT22;39886;47.984;-1.586;2022-07-24T09:49:23;28.50;50.50
53978;DHT22;39886;47.984;-1.586;2022-07-24T09:54:43;28.50;50.40
53978;DHT22;39886;47.984;-1.586;2022-07-24T09:57:24;28.50;50.30
53978;DHT22;39886;47.984;-1.586;2022-07-24T10:02:18;28.60;50.30
53978;DHT22;39886;47.984;-1.586;2022-07-24T10:04:45;28.60;50.20
53978;DHT22;39886;47.984;-1.586;2022-07-24T10:07:12;28.60;50.30
53978;DHT22;39886;47.984;-1.586;2022-07-24T10:09:43;28.60;50.20
53978;DHT22;39886;47.984;-1.586;2022-07-24T10:12:18;28.60;50.90
53978;DHT22;39886;47.984;-1.586;2022-07-24T10:14:46;28.60;50.10
53978;DHT22;39886;47.984;-1.586;2022-07-24T10:17:13;28.70;50.20
53978;DHT22;39886;47.984;-1.586;2022-07-24T10:19:44;28.70;50.20
53978;DHT22;39886;47.984;-1.586;2022-07-24T10:22:18;28.60;50.20
53978;DHT22;39886;47.984;-1.586;2022-07-24T10:24:54;28.70;50.20
53978;DHT22;39886;47.984;-1.586;2022-07-24T10:27:30;28.70;50.20
53978;DHT22;39886;47.984;-1.586;2022-07-24T10:29:58;28.70;50.20
53978;DHT22;39886;47.984;-1.586;2022-07-24T10:32:25;28.70;50.20
53978;DHT22;39886;47.984;-1.586;2022-07-24T10:37:53;28.70;50.10
53978;DHT22;39886;47.984;-1.586;2022-07-24T10:40:45;28.70;50.10
53978;DHT22;39886;47.984;-1.586;2022-07-24T10:43:13;28.70;50.20
53978;DHT22;39886;47.984;-1.586;2022-07-24T10:45:44;28.70;50.20
53978;DHT22;39886;47.984;-1.586;2022-07-24T10:48:37;28.70;50.10
53978;DHT22;39886;47.984;-1.586;2022-07-24T10:51:07;28.80;50.20
53978;DHT22;39886;47.984;-1.586;2022-07-24T10:56:25;28.70;50.20
53978;DHT22;39886;47.984;-1.586;2022-07-24T11:01:44;28.70;50.10
53978;DHT22;39886;47.984;-1.586;2022-07-24T11:06:56;28.80;50.20
53978;DHT22;39886;47.984;-1.586;2022-07-24T11:09:25;28.80;50.10
53978;DHT22;39886;47.984;-1.586;2022-07-24T11:14:20;28.80;50.10
53978;DHT22;39886;47.984;-1.586;2022-07-24T11:16:47;28.80;50.10
53978;DHT22;39886;47.984;-1.586;2022-07-24T11:21:47;28.80;50.10
53978;DHT22;39886;47.984;-1.586;2022-07-24T11:29:25;28.80;49.90
53978;DHT22;39886;47.984;-1.586;2022-07-24T11:32:04;28.80;50.00
53978;DHT22;39886;47.984;-1.586;2022-07-24T11:34:30;28.80;49.90
53978;DHT22;39886;47.984;-1.586;2022-07-24T11:36:57;28.80;49.90
53978;DHT22;39886;47.984;-1.586;2022-07-24T11:39:35;28.80;49.80
53978;DHT22;39886;47.984;-1.586;2022-07-24T11:42:04;28.80;49.80
53978;DHT22;39886;47.984;-1.586;2022-07-24T11:44:39;28.80;49.80
53978;DHT22;39886;47.984;-1.586;2022-07-24T11:54:45;28.90;49.70
53978;DHT22;39886;47.984;-1.586;2022-07-24T11:57:19;28.90;49.70
53978;DHT22;39886;47.984;-1.586;2022-07-24T11:59:47;28.90;49.70
53978;DHT22;39886;47.984;-1.586;2022-07-24T12:02:13;28.90;49.60
53978;DHT22;39886;47.984;-1.586;2022-07-24T12:04:40;28.90;49.60
53978;DHT22;39886;47.984;-1.586;2022-07-24T12:07:12;28.90;49.60
53978;DHT22;39886;47.984;-1.586;2022-07-24T12:09:59;28.90;49.60
53978;DHT22;39886;47.984;-1.586;2022-07-24T12:12:37;28.90;49.60
53978;DHT22;39886;47.984;-1.586;2022-07-24T12:15:06;28.90;49.50
53978;DHT22;39886;47.984;-1.586;2022-07-24T12:17:35;28.90;49.60
53978;DHT22;39886;47.984;-1.586;2022-07-24T12:20:02;28.90;49.50
53978;DHT22;39886;47.984;-1.586;2022-07-24T12:22:32;28.90;49.50
53978;DHT22;39886;47.984;-1.586;2022-07-24T12:24:58;28.90;49.50
53978;DHT22;39886;47.984;-1.586;2022-07-24T12:28:03;28.90;49.50
53978;DHT22;39886;47.984;-1.586;2022-07-24T12:30:31;28.90;49.50
53978;DHT22;39886;47.984;-1.586;2022-07-24T12:33:05;28.90;49.50
53978;DHT22;39886;47.984;-1.586;2022-07-24T12:35:34;28.90;49.50
53978;DHT22;39886;47.984;-1.586;2022-07-24T12:38:01;28.90;49.50
53978;DHT22;39886;47.984;-1.586;2022-07-24T12:40:36;28.90;49.50
53978;DHT22;39886;47.984;-1.586;2022-07-24T12:43:08;28.90;49.40
53978;DHT22;39886;47.984;-1.586;2022-07-24T12:45:35;28.90;49.50
53978;DHT22;39886;47.984;-1.586;2022-07-24T12:51:12;29.00;49.50
53978;DHT22;39886;47.984;-1.586;2022-07-24T12:53:41;28.90;49.40
53978;DHT22;39886;47.984;-1.586;2022-07-24T12:56:15;28.90;49.40
53978;DHT22;39886;47.984;-1.586;2022-07-24T12:58:59;29.00;49.50
53978;DHT22;39886;47.984;-1.586;2022-07-24T13:01:45;28.90;49.40
53978;DHT22;39886;47.984;-1.586;2022-07-24T13:04:11;28.90;49.40
53978;DHT22;39886;47.984;-1.586;2022-07-24T13:06:42;28.90;49.40
53978;DHT22;39886;47.984;-1.586;2022-07-24T13:09:10;28.90;49.40
53978;DHT22;39886;47.984;-1.586;2022-07-24T13:11:38;28.90;49.40
53978;DHT22;39886;47.984;-1.586;2022-07-24T13:14:05;28.90;49.40
53978;DHT22;39886;47.984;-1.586;2022-07-24T13:16:32;28.90;49.40
53978;DHT22;39886;47.984;-1.586;2022-07-24T13:18:59;28.90;49.40
53978;DHT22;39886;47.984;-1.586;2022-07-24T13:21:25;28.90;49.40
53978;DHT22;39886;47.984;-1.586;2022-07-24T13:23:51;28.90;49.40
53978;DHT22;39886;47.984;-1.586;2022-07-24T13:26:17;28.90;49.40
53978;DHT22;39886;47.984;-1.586;2022-07-24T13:28:43;28.90;49.40
53978;DHT22;39886;47.984;-1.586;2022-07-24T13:31:09;28.90;49.30
53978;DHT22;39886;47.984;-1.586;2022-07-24T13:33:34;28.90;49.30
53978;DHT22;39886;47.984;-1.586;2022-07-24T13:36:00;28.90;49.30
53978;DHT22;39886;47.984;-1.586;2022-07-24T13:38:26;28.90;49.30
53978;DHT22;39886;47.984;-1.586;2022-07-24T13:40:51;29.00;49.30
53978;DHT22;39886;47.984;-1.586;2022-07-24T13:43:17;29.00;49.30
53978;DHT22;39886;47.984;-1.586;2022-07-24T13:45:43;28.90;49.20
53978;DHT22;39886;47.984;-1.586;2022-07-24T13:48:09;29.00;49.30
53978;DHT22;39886;47.984;-1.586;2022-07-24T13:50:35;28.90;49.20
53978;DHT22;39886;47.984;-1.586;2022-07-24T13:53:01;28.90;49.20
53978;DHT22;39886;47.984;-1.586;2022-07-24T13:55:27;29.00;49.20
53978;DHT22;39886;47.984;-1.586;2022-07-24T13:57:53;29.00;49.20
53978;DHT22;39886;47.984;-1.586;2022-07-24T14:00:18;28.90;49.20
53978;DHT22;39886;47.984;-1.586;2022-07-24T14:02:44;29.00;49.20
53978;DHT22;39886;47.984;-1.586;2022-07-24T14:05:10;29.00;49.20
53978;DHT22;39886;47.984;-1.586;2022-07-24T14:07:36;29.00;49.20
53978;DHT22;39886;47.984;-1.586;2022-07-24T14:10:02;29.00;49.20
53978;DHT22;39886;47.984;-1.586;2022-07-24T14:12:27;29.00;49.10
53978;DHT22;39886;47.984;-1.586;2022-07-24T14:14:54;29.00;49.10
53978;DHT22;39886;47.984;-1.586;2022-07-24T14:17:20;29.00;49.10
53978;DHT22;39886;47.984;-1.586;2022-07-24T14:19:46;29.00;49.10
53978;DHT22;39886;47.984;-1.586;2022-07-24T14:22:11;29.00;49.10
53978;DHT22;39886;47.984;-1.586;2022-07-24T14:24:37;29.00;49.10
53978;DHT22;39886;47.984;-1.586;2022-07-24T14:27:03;29.00;49.10
53978;DHT22;39886;47.984;-1.586;2022-07-24T14:29:28;29.00;49.00
53978;DHT22;39886;47.984;-1.586;2022-07-24T14:31:54;29.00;48.90
53978;DHT22;39886;47.984;-1.586;2022-07-24T14:34:20;29.00;48.90
53978;DHT22;39886;47.984;-1.586;2022-07-24T14:36:46;29.10;48.90
53978;DHT22;39886;47.984;-1.586;2022-07-24T14:39:11;29.10;48.80
53978;DHT22;39886;47.984;-1.586;2022-07-24T14:41:37;29.10;48.80
53978;DHT22;39886;47.984;-1.586;2022-07-24T14:44:04;29.10;48.80
53978;DHT22;39886;47.984;-1.586;2022-07-24T14:46:30;29.10;48.70
53978;DHT22;39886;47.984;-1.586;2022-07-24T14:48:55;29.10;48.70
53978;DHT22;39886;47.984;-1.586;2022-07-24T14:51:21;29.10;48.70
53978;DHT22;39886;47.984;-1.586;2022-07-24T14:53:47;29.10;48.70
53978;DHT22;39886;47.984;-1.586;2022-07-24T14:56:13;29.10;48.70
53978;DHT22;39886;47.984;-1.586;2022-07-24T14:58:38;29.10;48.70
53978;DHT22;39886;47.984;-1.586;2022-07-24T15:01:04;29.10;48.70
53978;DHT22;39886;47.984;-1.586;2022-07-24T15:03:30;29.10;48.70
53978;DHT22;39886;47.984;-1.586;2022-07-24T15:05:56;29.10;48.60
53978;DHT22;39886;47.984;-1.586;2022-07-24T15:08:22;29.10;48.60
53978;DHT22;39886;47.984;-1.586;2022-07-24T15:10:48;29.10;48.70
53978;DHT22;39886;47.984;-1.586;2022-07-24T15:13:14;29.10;48.70
53978;DHT22;39886;47.984;-1.586;2022-07-24T15:15:39;29.10;48.70
53978;DHT22;39886;47.984;-1.586;2022-07-24T15:18:05;29.10;48.70
53978;DHT22;39886;47.984;-1.586;2022-07-24T15:20:31;29.10;48.80
53978;DHT22;39886;47.984;-1.586;2022-07-24T15:22:56;29.10;48.80
53978;DHT22;39886;47.984;-1.586;2022-07-24T15:25:22;29.10;48.80
53978;DHT22;39886;47.984;-1.586;2022-07-24T15:27:48;29.10;48.80
53978;DHT22;39886;47.984;-1.586;2022-07-24T15:30:19;29.10;48.70
53978;DHT22;39886;47.984;-1.586;2022-07-24T15:32:45;29.10;48.70
53978;DHT22;39886;47.984;-1.586;2022-07-24T15:35:12;29.10;48.70
53978;DHT22;39886;47.984;-1.586;2022-07-24T15:37:38;29.20;48.70
53978;DHT22;39886;47.984;-1.586;2022-07-24T15:40:04;29.20;48.70
53978;DHT22;39886;47.984;-1.586;2022-07-24T15:42:30;29.20;48.60
53978;DHT22;39886;47.984;-1.586;2022-07-24T15:44:56;29.20;48.50
53978;DHT22;39886;47.984;-1.586;2022-07-24T15:47:22;29.20;48.40
53978;DHT22;39886;47.984;-1.586;2022-07-24T15:49:48;29.20;48.40
53978;DHT22;39886;47.984;-1.586;2022-07-24T15:52:14;29.30;48.30
53978;DHT22;39886;47.984;-1.586;2022-07-24T15:54:40;29.30;48.30